createdAt,value
2023-05-24T00:00:07.124Z,190.58
2023-05-24T00:01:07.163Z,190.85
2023-05-24T00:02:07.155Z,191.44
2023-05-24T00:03:07.327Z,192.12
2023-05-24T00:04:07.281Z,191.41
2023-05-24T00:05:07.257Z,194.67
2023-05-24T00:06:07.185Z,197.84
2023-05-24T00:07:07.177Z,195.66
2023-05-24T00:08:07.147Z,191.77
2023-05-24T00:09:07.133Z,192.08
2023-05-24T00:10:07.170Z,190.14
2023-05-24T00:11:07.160Z,191.81
2023-05-24T00:12:07.148Z,196.23
2023-05-24T00:13:07.136Z,195.09
2023-05-24T00:14:07.122Z,193.67
2023-05-24T00:15:07.125Z,194.04
2023-05-24T00:16:07.210Z,192.90
2023-05-24T00:17:07.112Z,197.07
2023-05-24T00:18:07.306Z,193.54
2023-05-24T00:19:07.167Z,195.50
2023-05-24T00:20:07.479Z,193.08
2023-05-24T00:21:07.142Z,194.13
2023-05-24T00:22:07.159Z,196.48
2023-05-24T00:23:07.157Z,196.53
2023-05-24T00:24:07.148Z,196.96
2023-05-24T00:25:07.144Z,196.00
2023-05-24T00:26:07.126Z,195.47
2023-05-24T00:27:07.107Z,196.69
2023-05-24T00:28:07.106Z,196.70
2023-05-24T00:29:07.128Z,198.49
2023-05-24T00:30:07.100Z,199.89
2023-05-24T00:31:07.080Z,194.65
2023-05-24T00:32:07.218Z,196.19
2023-05-24T00:33:07.076Z,197.25
2023-05-24T00:34:07.121Z,198.95
2023-05-24T00:35:07.092Z,195.08
2023-05-24T00:36:07.095Z,196.54
2023-05-24T00:37:07.087Z,193.37
2023-05-24T00:38:07.101Z,192.58
2023-05-24T00:39:07.079Z,188.06
2023-05-24T00:40:07.064Z,187.15
2023-05-24T00:41:07.078Z,187.38
2023-05-24T00:42:07.109Z,185.07
2023-05-24T00:43:07.042Z,186.95
2023-05-24T00:44:07.134Z,192.08
2023-05-24T00:45:07.152Z,191.65
2023-05-24T00:46:07.106Z,189.27
2023-05-24T00:47:07.100Z,189.82
2023-05-24T00:48:07.107Z,188.99
2023-05-24T00:49:07.132Z,187.51
2023-05-24T00:50:07.136Z,188.64
2023-05-24T00:51:07.175Z,188.88
2023-05-24T00:52:07.250Z,193.54
2023-05-24T00:53:07.263Z,193.12
2023-05-24T00:54:07.284Z,192.93
2023-05-24T00:55:07.320Z,188.74
2023-05-24T00:56:07.312Z,189.46
2023-05-24T00:57:07.315Z,191.16
2023-05-24T00:58:07.379Z,190.92
2023-05-24T00:59:07.422Z,189.87
2023-05-24T01:00:07.388Z,188.47
2023-05-24T01:01:07.409Z,187.77
2023-05-24T01:02:07.407Z,186.60
2023-05-24T01:03:07.561Z,188.51
2023-05-24T01:04:07.408Z,190.50
2023-05-24T01:05:07.426Z,185.91
2023-05-24T01:06:07.377Z,180.84
2023-05-24T01:07:07.356Z,179.79
2023-05-24T01:08:07.378Z,181.96
2023-05-24T01:09:07.374Z,186.29
2023-05-24T01:10:07.419Z,184.20
2023-05-24T01:11:07.423Z,183.74
2023-05-24T01:12:07.436Z,179.92
2023-05-24T01:13:07.428Z,181.07
2023-05-24T01:14:07.452Z,183.24
2023-05-24T01:15:07.488Z,184.52
2023-05-24T01:16:07.548Z,185.02
2023-05-24T01:17:07.543Z,184.68
2023-05-24T01:18:07.678Z,184.10
2023-05-24T01:19:07.639Z,184.25
2023-05-24T01:20:07.703Z,184.24
2023-05-24T01:21:07.665Z,184.65
2023-05-24T01:22:07.672Z,180.15
2023-05-24T01:23:07.680Z,182.15
2023-05-24T01:24:07.734Z,182.38
2023-05-24T01:25:07.759Z,179.23
2023-05-24T01:26:07.759Z,179.28
2023-05-24T01:27:07.782Z,182.09
2023-05-24T01:28:08.440Z,179.28
2023-05-24T01:29:07.836Z,184.91
2023-05-24T01:30:07.872Z,183.38
2023-05-24T01:31:07.914Z,181.82
2023-05-24T01:32:07.878Z,183.12
2023-05-24T01:33:07.941Z,182.48
2023-05-24T01:34:07.907Z,181.31
2023-05-24T01:35:07.953Z,183.64
2023-05-24T01:36:07.977Z,180.54
2023-05-24T01:37:08.015Z,182.90
2023-05-24T01:38:08.092Z,182.15
2023-05-24T01:39:08.053Z,180.42
2023-05-24T01:40:08.090Z,179.06
2023-05-24T01:41:08.088Z,179.45
2023-05-24T01:42:08.081Z,180.78
2023-05-24T01:43:08.070Z,181.36
2023-05-24T01:44:08.073Z,179.91
2023-05-24T01:45:08.099Z,182.67
2023-05-24T01:46:08.147Z,182.86
2023-05-24T01:47:08.139Z,179.82
2023-05-24T01:48:08.204Z,179.51
2023-05-24T01:49:08.171Z,182.87
2023-05-24T01:50:08.158Z,184.37
2023-05-24T01:51:08.215Z,182.71
2023-05-24T01:52:08.268Z,182.12
2023-05-24T01:53:08.222Z,179.99
2023-05-24T01:54:08.218Z,178.38
2023-05-24T01:55:08.249Z,179.04
2023-05-24T01:56:08.231Z,186.19
2023-05-24T01:57:08.257Z,183.80
2023-05-24T01:58:08.300Z,182.34
2023-05-24T01:59:08.290Z,183.98
2023-05-24T02:00:08.328Z,180.08
2023-05-24T02:01:08.361Z,174.51
2023-05-24T02:02:08.346Z,178.36
2023-05-24T02:03:08.510Z,184.22
2023-05-24T02:04:08.401Z,185.90
2023-05-24T02:05:08.447Z,182.41
2023-05-24T02:06:08.432Z,180.50
2023-05-24T02:07:08.442Z,178.82
2023-05-24T02:08:08.459Z,178.25
2023-05-24T02:09:08.474Z,178.53
2023-05-24T02:10:08.539Z,178.89
2023-05-24T02:11:08.475Z,178.33
2023-05-24T02:12:08.505Z,180.99
2023-05-24T02:13:08.473Z,179.09
2023-05-24T02:14:08.462Z,173.46
2023-05-24T02:15:08.484Z,175.09
2023-05-24T02:16:08.524Z,172.02
2023-05-24T02:17:08.489Z,173.12
2023-05-24T02:18:08.534Z,178.17
2023-05-24T02:19:08.495Z,182.59
2023-05-24T02:20:08.528Z,178.21
2023-05-24T02:21:08.523Z,176.37
2023-05-24T02:22:08.569Z,177.19
2023-05-24T02:23:08.509Z,179.60
2023-05-24T02:24:08.522Z,180.73
2023-05-24T02:25:08.545Z,178.51
2023-05-24T02:26:08.589Z,177.42
2023-05-24T02:27:08.564Z,177.90
2023-05-24T02:28:08.585Z,177.34
2023-05-24T02:29:08.650Z,174.11
2023-05-24T02:30:08.601Z,174.81
2023-05-24T02:31:08.644Z,173.12
2023-05-24T02:32:08.588Z,169.75
2023-05-24T02:33:08.636Z,170.31
2023-05-24T02:34:08.609Z,172.48
2023-05-24T02:35:08.601Z,173.18
2023-05-24T02:36:08.601Z,172.20
2023-05-24T02:37:08.633Z,174.50
2023-05-24T02:38:08.641Z,173.94
2023-05-24T02:39:08.645Z,175.44
2023-05-24T02:40:08.639Z,177.34
2023-05-24T02:41:08.628Z,178.24
2023-05-24T02:42:08.643Z,176.30
2023-05-24T02:43:08.649Z,177.21
2023-05-24T02:44:08.685Z,175.84
2023-05-24T02:45:08.705Z,176.40
2023-05-24T02:46:08.740Z,175.33
2023-05-24T02:47:08.672Z,176.38
2023-05-24T02:48:08.739Z,175.47
2023-05-24T02:49:08.705Z,171.63
2023-05-24T02:50:08.698Z,173.22
2023-05-24T02:51:08.692Z,172.93
2023-05-24T02:52:08.693Z,174.26
2023-05-24T02:53:08.690Z,171.43
2023-05-24T02:54:08.700Z,173.15
2023-05-24T02:55:08.692Z,173.29
2023-05-24T02:56:08.673Z,171.87
2023-05-24T02:57:08.666Z,174.68
2023-05-24T02:58:08.673Z,171.37
2023-05-24T02:59:08.670Z,171.07
2023-05-24T03:00:08.667Z,168.30
2023-05-24T03:01:08.724Z,168.44
2023-05-24T03:02:08.726Z,168.71
2023-05-24T03:03:08.729Z,170.47
2023-05-24T03:04:08.751Z,168.57
2023-05-24T03:05:08.692Z,169.66
2023-05-24T03:06:08.636Z,168.80
2023-05-24T03:07:08.631Z,166.96
2023-05-24T03:08:08.649Z,165.18
2023-05-24T03:09:08.654Z,167.15
2023-05-24T03:10:08.663Z,166.81
2023-05-24T03:11:08.717Z,167.51
2023-05-24T03:12:08.666Z,166.24
2023-05-24T03:13:08.665Z,162.08
2023-05-24T03:14:08.626Z,167.52
2023-05-24T03:15:08.624Z,170.10
2023-05-24T03:16:08.704Z,170.21
2023-05-24T03:17:08.640Z,167.35
2023-05-24T03:18:08.690Z,171.69
2023-05-24T03:19:10.044Z,169.90
2023-05-24T03:20:08.687Z,170.53
2023-05-24T03:21:08.687Z,168.72
2023-05-24T03:22:08.658Z,170.71
2023-05-24T03:23:08.693Z,166.63
2023-05-24T03:24:08.672Z,169.93
2023-05-24T03:25:08.708Z,168.44
2023-05-24T03:26:08.685Z,167.57
2023-05-24T03:27:08.741Z,168.91
2023-05-24T03:28:08.702Z,169.64
2023-05-24T03:29:08.702Z,172.79
2023-05-24T03:30:08.705Z,170.91
2023-05-24T03:31:08.678Z,172.51
2023-05-24T03:32:08.688Z,172.67
2023-05-24T03:33:08.855Z,171.01
2023-05-24T03:34:08.706Z,172.51
2023-05-24T03:35:08.677Z,171.02
2023-05-24T03:36:08.688Z,167.94
2023-05-24T03:37:08.721Z,169.71
2023-05-24T03:38:08.744Z,171.81
2023-05-24T03:39:08.731Z,169.87
2023-05-24T03:40:08.751Z,170.72
2023-05-24T03:41:08.749Z,169.61
2023-05-24T03:42:08.754Z,168.92
2023-05-24T03:43:08.745Z,167.98
2023-05-24T03:44:08.779Z,166.26
2023-05-24T03:45:08.780Z,166.14
2023-05-24T03:46:08.800Z,167.34
2023-05-24T03:47:08.780Z,168.37
2023-05-24T03:48:08.824Z,169.38
2023-05-24T03:49:08.802Z,165.99
2023-05-24T03:50:08.829Z,164.00
2023-05-24T03:51:08.840Z,163.97
2023-05-24T03:52:08.873Z,162.85
2023-05-24T03:53:08.859Z,164.36
2023-05-24T03:54:08.902Z,167.83
2023-05-24T03:55:08.912Z,166.05
2023-05-24T03:56:08.909Z,161.40
2023-05-24T03:57:08.935Z,164.49
2023-05-24T03:58:08.937Z,165.19
2023-05-24T03:59:08.976Z,163.86
2023-05-24T04:00:09.012Z,165.46
2023-05-24T04:01:09.362Z,167.66
2023-05-24T04:02:09.032Z,167.05
2023-05-24T04:03:09.137Z,166.41
2023-05-24T04:04:09.110Z,169.23
2023-05-24T04:05:09.053Z,166.95
2023-05-24T04:06:09.075Z,165.68
2023-05-24T04:07:09.046Z,166.40
2023-05-24T04:08:09.077Z,168.59
2023-05-24T04:09:09.104Z,167.02
2023-05-24T04:10:09.131Z,168.46
2023-05-24T04:11:09.139Z,166.80
2023-05-24T04:12:09.163Z,164.91
2023-05-24T04:13:09.143Z,165.42
2023-05-24T04:14:09.159Z,165.04
2023-05-24T04:15:09.195Z,166.32
2023-05-24T04:16:09.163Z,168.29
2023-05-24T04:17:09.188Z,164.38
2023-05-24T04:18:09.302Z,162.85
2023-05-24T04:19:09.162Z,161.24
2023-05-24T04:20:09.200Z,162.64
2023-05-24T04:21:09.187Z,162.50
2023-05-24T04:22:09.181Z,161.39
2023-05-24T04:23:09.199Z,163.64
2023-05-24T04:24:09.192Z,165.56
2023-05-24T04:25:09.223Z,166.38
2023-05-24T04:26:09.239Z,164.75
2023-05-24T04:27:09.212Z,163.14
2023-05-24T04:28:09.190Z,162.30
2023-05-24T04:29:09.183Z,162.08
2023-05-24T04:30:09.190Z,164.31
2023-05-24T04:31:09.230Z,163.36
2023-05-24T04:32:09.220Z,163.37
2023-05-24T04:33:09.222Z,166.68
2023-05-24T04:34:09.172Z,164.65
2023-05-24T04:35:09.200Z,164.31
2023-05-24T04:36:09.228Z,163.21
2023-05-24T04:37:09.249Z,164.15
2023-05-24T04:38:09.209Z,163.85
2023-05-24T04:39:09.208Z,164.38
2023-05-24T04:40:09.240Z,164.31
2023-05-24T04:41:09.261Z,164.67
2023-05-24T04:42:09.260Z,164.62
2023-05-24T04:43:09.284Z,164.28
2023-05-24T04:44:09.279Z,163.79
2023-05-24T04:45:09.271Z,164.28
2023-05-24T04:46:09.649Z,164.33
2023-05-24T04:47:09.287Z,164.71
2023-05-24T04:48:09.281Z,165.25
2023-05-24T04:49:09.272Z,165.86
2023-05-24T04:50:09.262Z,166.76
2023-05-24T04:51:09.286Z,166.74
2023-05-24T04:52:09.501Z,164.19
2023-05-24T04:53:09.306Z,166.16
2023-05-24T04:54:09.455Z,168.76
2023-05-24T04:55:09.303Z,166.72
2023-05-24T04:56:09.289Z,166.52
2023-05-24T04:57:09.304Z,165.83
2023-05-24T04:58:10.705Z,165.37
2023-05-24T04:59:09.312Z,166.53
2023-05-24T05:00:09.337Z,165.61
2023-05-24T05:01:16.338Z,167.32
2023-05-24T05:02:09.357Z,167.42
2023-05-24T05:03:09.433Z,167.58
2023-05-24T05:04:09.454Z,168.28
2023-05-24T05:05:09.261Z,169.38
2023-05-24T05:06:09.277Z,168.59
2023-05-24T05:07:09.218Z,169.08
2023-05-24T05:08:09.238Z,169.73
2023-05-24T05:09:09.206Z,170.19
2023-05-24T05:10:09.184Z,170.16
2023-05-24T05:11:09.179Z,173.07
2023-05-24T05:12:09.165Z,166.03
2023-05-24T05:13:09.190Z,160.85
2023-05-24T05:14:09.224Z,154.62
2023-05-24T05:15:09.135Z,148.07
2023-05-24T05:16:09.091Z,148.16
2023-05-24T05:17:09.087Z,153.94
2023-05-24T05:18:09.089Z,160.17
2023-05-24T05:19:09.052Z,162.79
2023-05-24T05:20:09.052Z,160.49
2023-05-24T05:21:09.018Z,163.61
2023-05-24T05:22:08.978Z,163.62
2023-05-24T05:23:08.964Z,165.46
2023-05-24T05:24:08.934Z,165.08
2023-05-24T05:25:08.957Z,165.72
2023-05-24T05:26:08.913Z,165.80
2023-05-24T05:27:08.882Z,168.50
2023-05-24T05:28:08.907Z,166.68
2023-05-24T05:29:08.858Z,166.82
2023-05-24T05:30:08.853Z,166.71
2023-05-24T05:31:08.827Z,144.57
2023-05-24T05:32:08.849Z,112.06
2023-05-24T05:33:08.864Z,90.49
2023-05-24T05:34:08.794Z,81.74
2023-05-24T05:35:08.788Z,74.06
2023-05-24T05:36:08.777Z,72.71
2023-05-24T05:37:09.044Z,72.36
2023-05-24T05:38:08.755Z,79.52
2023-05-24T05:39:08.765Z,74.94
2023-05-24T05:40:09.511Z,81.72
2023-05-24T05:41:08.765Z,86.75
2023-05-24T05:42:09.081Z,86.83
2023-05-24T05:43:08.746Z,92.53
2023-05-24T05:44:08.743Z,80.51
2023-05-24T05:46:27.766Z,25.00
2023-05-24T05:47:27.512Z,25.00
2023-05-24T05:48:27.484Z,25.00
2023-05-24T05:49:27.450Z,25.00
2023-05-24T05:50:27.447Z,25.00
2023-05-24T05:51:27.384Z,47.63
2023-05-24T05:52:27.768Z,72.37
2023-05-24T05:53:27.330Z,89.39
2023-05-24T05:54:27.339Z,101.57
2023-05-24T05:55:27.252Z,101.23
2023-05-24T05:56:27.236Z,110.69
2023-05-24T05:57:27.187Z,115.25
2023-05-24T05:58:27.170Z,135.41
2023-05-24T05:59:27.102Z,132.64
2023-05-24T06:00:27.081Z,143.21
2023-05-24T06:01:27.048Z,160.89
2023-05-24T06:02:27.298Z,156.80
2023-05-24T06:03:27.101Z,155.42
2023-05-24T06:04:26.960Z,169.39
2023-05-24T06:05:26.921Z,167.00
2023-05-24T06:06:26.842Z,146.85
2023-05-24T06:07:26.896Z,138.24
2023-05-24T06:08:26.792Z,142.51
2023-05-24T06:09:26.801Z,158.69
2023-05-24T06:10:26.673Z,154.45
2023-05-24T06:11:26.635Z,159.90
2023-05-24T06:12:26.634Z,164.45
2023-05-24T06:13:26.578Z,168.56
2023-05-24T06:14:26.563Z,166.35
2023-05-24T06:15:26.501Z,162.12
2023-05-24T06:16:26.491Z,155.45
2023-05-24T06:17:26.462Z,154.97
2023-05-24T06:18:26.479Z,159.91
2023-05-24T06:19:26.345Z,176.78
2023-05-24T06:20:26.368Z,186.14
2023-05-24T06:21:26.253Z,170.31
2023-05-24T06:22:26.247Z,169.22
2023-05-24T06:23:26.206Z,164.23
2023-05-24T06:24:26.155Z,156.59
2023-05-24T06:25:26.075Z,158.70
2023-05-24T06:26:26.062Z,155.78
2023-05-24T06:27:26.016Z,162.49
2023-05-24T06:28:26.240Z,172.75
2023-05-24T06:29:25.967Z,176.44
2023-05-24T06:30:25.993Z,173.40
2023-05-24T06:31:25.838Z,173.52
2023-05-24T06:32:25.831Z,173.25
2023-05-24T06:33:25.761Z,167.40
2023-05-24T06:34:25.698Z,181.30
2023-05-24T06:35:25.689Z,182.54
2023-05-24T06:36:25.613Z,189.25
2023-05-24T06:37:25.599Z,191.83
2023-05-24T06:38:25.763Z,211.63
2023-05-24T06:39:25.502Z,219.77
2023-05-24T06:40:25.442Z,216.96
2023-05-24T06:41:25.394Z,221.43
2023-05-24T06:42:25.358Z,229.18
2023-05-24T06:43:25.293Z,249.41
2023-05-24T06:44:25.482Z,249.98
2023-05-24T06:45:25.168Z,247.31
2023-05-24T06:46:25.213Z,246.99
2023-05-24T06:47:25.262Z,250.00
2023-05-24T06:48:25.074Z,248.12
2023-05-24T06:49:24.968Z,250.00
2023-05-24T06:50:24.909Z,248.83
2023-05-24T06:51:24.866Z,250.00
2023-05-24T06:52:24.801Z,250.76
2023-05-24T06:53:24.767Z,250.46
2023-05-24T06:54:24.732Z,250.00
2023-05-24T06:55:24.695Z,248.36
2023-05-24T06:56:24.673Z,248.63
2023-05-24T06:57:24.682Z,249.67
2023-05-24T06:58:24.707Z,246.34
2023-05-24T06:59:24.687Z,248.92
2023-05-24T07:00:24.699Z,248.29
2023-05-24T07:01:24.742Z,249.81
2023-05-24T07:02:24.676Z,249.26
2023-05-24T07:03:24.669Z,250.00
2023-05-24T07:04:24.695Z,248.38
2023-05-24T07:05:24.693Z,249.90
2023-05-24T07:06:24.751Z,247.22
2023-05-24T07:07:24.643Z,250.00
2023-05-24T07:08:24.605Z,249.19
2023-05-24T07:09:24.617Z,250.00
2023-05-24T07:10:24.561Z,247.14
2023-05-24T07:11:24.616Z,248.09
2023-05-24T07:12:24.555Z,249.05
2023-05-24T07:13:24.543Z,249.97
2023-05-24T07:14:24.484Z,248.32
2023-05-24T07:15:24.478Z,247.07
2023-05-24T07:16:24.481Z,247.90
2023-05-24T07:17:25.519Z,248.05
2023-05-24T07:18:24.349Z,248.25
2023-05-24T07:19:24.284Z,248.66
2023-05-24T07:20:24.286Z,249.12
2023-05-24T07:21:24.170Z,250.75
2023-05-24T07:22:24.159Z,249.01
2023-05-24T07:23:24.089Z,249.48
2023-05-24T07:24:23.985Z,248.49
2023-05-24T07:25:24.000Z,250.00
2023-05-24T07:26:23.909Z,248.02
2023-05-24T07:27:23.875Z,249.26
2023-05-24T07:28:23.815Z,247.00
2023-05-24T07:29:23.749Z,249.28
2023-05-24T07:30:31.711Z,247.34
2023-05-24T07:31:24.654Z,247.65
2023-05-24T07:32:23.646Z,248.66
2023-05-24T07:33:23.813Z,252.87
2023-05-24T07:34:23.476Z,254.06
2023-05-24T07:35:23.405Z,223.44
2023-05-24T07:36:23.355Z,194.89
2023-05-24T07:37:23.281Z,143.48
2023-05-24T07:38:23.278Z,147.21
2023-05-24T07:39:23.232Z,113.01
2023-05-24T07:40:23.274Z,110.01
2023-05-24T07:41:23.104Z,75.90
2023-05-24T07:42:23.089Z,61.20
2023-05-24T07:43:23.101Z,58.81
2023-05-24T07:44:23.057Z,56.74
2023-05-24T07:45:23.058Z,29.81
2023-05-24T07:46:23.089Z,42.90
2023-05-24T07:47:23.150Z,58.94
2023-05-24T07:48:23.079Z,71.37
2023-05-24T07:49:23.102Z,60.67
2023-05-24T07:50:23.130Z,71.00
2023-05-24T07:51:23.094Z,57.53
2023-05-24T07:52:23.098Z,47.90
2023-05-24T07:53:23.097Z,47.51
2023-05-24T07:54:23.075Z,42.99
2023-05-24T07:55:23.091Z,45.40
2023-05-24T07:56:23.101Z,42.63
2023-05-24T07:57:23.146Z,39.91
2023-05-24T07:58:23.153Z,33.05
2023-05-24T07:59:23.125Z,27.72
2023-05-24T08:00:23.304Z,25.52
2023-05-24T08:01:23.179Z,26.04
2023-05-24T08:02:23.231Z,27.61
2023-05-24T08:03:23.292Z,25.00
2023-05-24T08:04:23.164Z,24.88
2023-05-24T08:05:23.173Z,25.00
2023-05-24T08:06:23.246Z,25.00
2023-05-24T08:07:23.884Z,25.00
2023-05-24T08:08:23.197Z,27.88
2023-05-24T08:09:23.219Z,26.45
2023-05-24T08:10:23.271Z,25.04
2023-05-24T08:11:23.247Z,25.21
2023-05-24T08:12:23.234Z,26.92
2023-05-24T08:13:23.218Z,26.59
2023-05-24T08:14:23.271Z,26.36
2023-05-24T08:15:23.265Z,26.41
2023-05-24T08:16:23.312Z,29.73
2023-05-24T08:17:23.258Z,31.98
2023-05-24T08:18:23.245Z,40.29
2023-05-24T08:19:23.250Z,45.75
2023-05-24T08:20:23.326Z,46.10
2023-05-24T08:21:23.239Z,44.80
2023-05-24T08:22:23.258Z,31.52
2023-05-24T08:23:23.297Z,30.02
2023-05-24T08:24:23.234Z,30.23
2023-05-24T08:25:23.225Z,32.80
2023-05-24T08:26:23.177Z,36.78
2023-05-24T08:27:23.196Z,36.36
2023-05-24T08:28:23.202Z,31.22
2023-05-24T08:29:23.174Z,33.45
2023-05-24T08:30:23.128Z,34.77
2023-05-24T08:31:23.317Z,33.95
2023-05-24T08:32:23.213Z,34.20
2023-05-24T08:33:23.095Z,36.91
2023-05-24T08:34:23.065Z,36.33
2023-05-24T08:35:23.103Z,39.08
2023-05-24T08:36:23.025Z,40.73
2023-05-24T08:37:23.004Z,41.84
2023-05-24T08:38:22.964Z,43.63
2023-05-24T08:39:22.974Z,43.08
2023-05-24T08:40:22.933Z,43.67
2023-05-24T08:41:22.924Z,44.09
2023-05-24T08:42:22.894Z,44.92
2023-05-24T08:43:23.332Z,43.25
2023-05-24T08:44:22.868Z,42.97
2023-05-24T08:45:22.868Z,39.38
2023-05-24T08:46:22.883Z,40.34
2023-05-24T08:47:22.878Z,36.86
2023-05-24T08:48:23.363Z,38.93
2023-05-24T08:49:22.849Z,37.22
2023-05-24T08:50:22.810Z,36.34
2023-05-24T08:51:22.856Z,34.33
2023-05-24T08:52:22.766Z,33.18
2023-05-24T08:53:22.749Z,36.28
2023-05-24T08:54:22.778Z,36.43
2023-05-24T08:55:22.720Z,35.33
2023-05-24T08:56:22.749Z,40.07
2023-05-24T08:57:22.713Z,41.96
2023-05-24T08:58:22.734Z,39.99
2023-05-24T08:59:22.714Z,40.10
2023-05-24T09:00:22.669Z,40.15
2023-05-24T09:01:22.739Z,36.16
2023-05-24T09:02:22.642Z,30.75
2023-05-24T09:03:22.949Z,24.81
2023-05-24T09:04:22.800Z,25.00
2023-05-24T09:05:22.617Z,26.75
2023-05-24T09:06:22.607Z,33.05
2023-05-24T09:07:24.284Z,34.47
2023-05-24T09:08:22.948Z,37.59
2023-05-24T09:09:22.589Z,36.11
2023-05-24T09:10:22.670Z,34.67
2023-05-24T09:11:22.541Z,34.11
2023-05-24T09:12:35.420Z,31.50
2023-05-24T09:13:23.535Z,24.89
2023-05-24T09:14:22.467Z,18.95
2023-05-24T09:15:22.468Z,14.89
2023-05-24T09:16:22.480Z,16.62
2023-05-24T09:17:22.351Z,17.59
2023-05-24T09:18:22.432Z,25.07
2023-05-24T09:19:22.336Z,26.31
2023-05-24T09:20:22.311Z,31.86
2023-05-24T09:21:22.229Z,31.64
2023-05-24T09:22:22.202Z,31.67
2023-05-24T09:23:22.194Z,33.80
2023-05-24T09:24:22.155Z,38.13
2023-05-24T09:25:22.098Z,39.36
2023-05-24T09:26:22.084Z,37.05
2023-05-24T09:27:22.069Z,37.54
2023-05-24T09:28:22.044Z,38.16
2023-05-24T09:29:21.973Z,32.99
2023-05-24T09:30:21.993Z,31.82
2023-05-24T09:31:21.962Z,33.54
2023-05-24T09:32:21.919Z,32.85
2023-05-24T09:33:21.844Z,35.64
2023-05-24T09:34:21.826Z,35.48
2023-05-24T09:35:21.784Z,39.08
2023-05-24T09:36:21.918Z,39.29
2023-05-24T09:37:25.591Z,39.53
2023-05-24T09:38:22.726Z,39.54
2023-05-24T09:39:21.830Z,37.66
2023-05-24T09:40:21.668Z,39.63
2023-05-24T09:41:21.623Z,46.91
2023-05-24T09:42:21.610Z,47.35
2023-05-24T09:43:22.511Z,50.66
2023-05-24T09:44:21.558Z,66.23
2023-05-24T09:45:21.496Z,71.82
2023-05-24T09:46:21.468Z,81.11
2023-05-24T09:47:21.443Z,97.66
2023-05-24T09:48:21.416Z,111.73
2023-05-24T09:49:21.853Z,120.86
2023-05-24T09:50:21.300Z,126.13
2023-05-24T09:51:21.298Z,132.57
2023-05-24T09:52:21.243Z,142.31
2023-05-24T09:53:21.149Z,149.99
2023-05-24T09:54:21.242Z,154.62
2023-05-24T09:55:21.100Z,160.21
2023-05-24T09:56:21.057Z,163.20
2023-05-24T09:57:21.009Z,166.84
2023-05-24T09:58:20.941Z,171.47
2023-05-24T09:59:20.949Z,175.17
2023-05-24T10:00:20.979Z,175.44
2023-05-24T10:01:20.909Z,176.98
2023-05-24T10:02:20.821Z,177.55
2023-05-24T10:03:20.780Z,181.06
2023-05-24T10:04:20.988Z,181.01
2023-05-24T10:05:20.632Z,187.87
2023-05-24T10:06:20.585Z,191.80
2023-05-24T10:07:20.543Z,193.00
2023-05-24T10:08:20.476Z,196.49
2023-05-24T10:09:20.874Z,195.50
2023-05-24T10:10:20.864Z,200.48
2023-05-24T10:11:20.283Z,202.28
2023-05-24T10:12:20.231Z,201.76
2023-05-24T10:13:20.183Z,204.12
2023-05-24T10:14:20.380Z,210.37
2023-05-24T10:15:20.077Z,212.19
2023-05-24T10:16:20.081Z,219.67
2023-05-24T10:17:19.976Z,221.75
2023-05-24T10:18:19.976Z,223.33
2023-05-24T10:19:19.865Z,228.50
2023-05-24T10:20:19.879Z,230.80
2023-05-24T10:21:19.699Z,229.35
2023-05-24T10:22:19.641Z,229.28
2023-05-24T10:23:19.652Z,233.33
2023-05-24T10:24:19.570Z,236.83
2023-05-24T10:25:19.500Z,238.85
2023-05-24T10:26:19.444Z,236.35
2023-05-24T10:27:19.354Z,234.46
2023-05-24T10:28:19.311Z,238.12
2023-05-24T10:29:19.241Z,241.21
2023-05-24T10:30:19.351Z,242.03
2023-05-24T10:31:19.158Z,246.47
2023-05-24T10:32:19.062Z,245.59
2023-05-24T10:33:19.045Z,245.42
2023-05-24T10:34:18.936Z,247.89
2023-05-24T10:35:19.374Z,247.88
2023-05-24T10:36:18.847Z,249.68
2023-05-24T10:37:18.823Z,250.00
2023-05-24T10:38:18.759Z,250.00
2023-05-24T10:39:18.709Z,248.83
2023-05-24T10:40:18.715Z,250.03
2023-05-24T10:41:18.739Z,245.81
2023-05-24T10:42:18.699Z,229.91
2023-05-24T10:43:18.695Z,225.78
2023-05-24T10:44:18.707Z,228.62
2023-05-24T10:45:18.664Z,229.49
2023-05-24T10:46:18.631Z,230.80
2023-05-24T10:47:18.635Z,228.79
2023-05-24T10:48:18.643Z,229.90
2023-05-24T10:49:18.583Z,230.83
2023-05-24T10:50:18.554Z,228.26
2023-05-24T10:51:18.542Z,230.53
2023-05-24T10:52:18.493Z,229.92
2023-05-24T10:53:18.513Z,230.11
2023-05-24T10:54:18.503Z,227.37
2023-05-24T10:55:18.501Z,223.04
2023-05-24T10:56:19.335Z,223.91
2023-05-24T10:57:18.529Z,223.63
2023-05-24T10:58:18.495Z,224.21
2023-05-24T10:59:18.495Z,221.87
2023-05-24T11:00:33.284Z,222.29
2023-05-24T11:01:19.524Z,222.31
2023-05-24T11:02:18.454Z,220.54
2023-05-24T11:03:18.321Z,218.51
2023-05-24T11:04:18.259Z,216.63
2023-05-24T11:05:18.273Z,217.86
2023-05-24T11:06:18.162Z,215.76
2023-05-24T11:07:18.170Z,215.94
2023-05-24T11:08:19.097Z,214.98
2023-05-24T11:09:17.985Z,215.71
2023-05-24T11:10:17.960Z,213.09
2023-05-24T11:11:24.632Z,212.12
2023-05-24T11:12:18.841Z,212.15
2023-05-24T11:13:17.821Z,211.51
2023-05-24T11:14:17.726Z,211.02
2023-05-24T11:15:17.678Z,210.22
2023-05-24T11:16:17.709Z,207.34
2023-05-24T11:17:17.552Z,209.28
2023-05-24T11:18:17.697Z,207.67
2023-05-24T11:19:17.507Z,206.13
2023-05-24T11:20:17.508Z,206.18
2023-05-24T11:21:17.359Z,204.91
2023-05-24T11:22:17.378Z,203.15
2023-05-24T11:23:17.319Z,204.30
2023-05-24T11:24:17.252Z,201.85
2023-05-24T11:25:17.383Z,202.36
2023-05-24T11:26:17.148Z,179.39
2023-05-24T11:27:17.088Z,175.10
2023-05-24T11:28:17.120Z,169.74
2023-05-24T11:29:17.022Z,168.75
2023-05-24T11:30:17.369Z,168.27
2023-05-24T11:31:16.988Z,167.85
2023-05-24T11:32:17.098Z,172.47
2023-05-24T11:33:17.009Z,172.96
2023-05-24T11:34:16.896Z,181.59
2023-05-24T11:35:17.372Z,179.91
2023-05-24T11:36:16.829Z,178.20
2023-05-24T11:37:17.886Z,177.70
2023-05-24T11:38:16.829Z,150.75
2023-05-24T11:39:16.886Z,135.54
2023-05-24T11:40:16.857Z,130.63
2023-05-24T11:41:16.781Z,134.59
2023-05-24T11:42:16.794Z,139.20
2023-05-24T11:43:16.988Z,144.71
2023-05-24T11:44:16.731Z,147.29
2023-05-24T11:45:16.772Z,146.42
2023-05-24T11:46:16.766Z,149.72
2023-05-24T11:47:16.713Z,140.29
2023-05-24T11:48:16.764Z,154.52
2023-05-24T11:49:16.708Z,210.62
2023-05-24T11:50:16.676Z,219.29
2023-05-24T11:51:16.702Z,216.14
2023-05-24T11:52:16.630Z,209.59
2023-05-24T11:53:16.644Z,197.37
2023-05-24T11:54:16.701Z,185.49
2023-05-24T11:55:16.947Z,191.87
2023-05-24T11:56:16.606Z,197.64
2023-05-24T11:57:16.650Z,203.57
2023-05-24T11:58:16.581Z,207.25
2023-05-24T11:59:16.562Z,208.52
2023-05-24T12:00:16.537Z,211.28
2023-05-24T12:01:16.515Z,210.25
2023-05-24T12:02:16.531Z,209.28
2023-05-24T12:03:16.582Z,210.25
2023-05-24T12:04:16.549Z,209.87
2023-05-24T12:05:16.427Z,207.65
2023-05-24T12:06:16.418Z,201.90
2023-05-24T12:07:16.405Z,202.76
2023-05-24T12:08:16.355Z,205.83
2023-05-24T12:09:16.365Z,202.46
2023-05-24T12:10:16.297Z,201.22
2023-05-24T12:11:16.372Z,203.98
2023-05-24T12:12:16.438Z,203.55
2023-05-24T12:13:16.571Z,202.23
2023-05-24T12:14:16.397Z,198.49
2023-05-24T12:15:16.214Z,200.28
2023-05-24T12:16:16.210Z,198.43
2023-05-24T12:17:16.163Z,196.85
2023-05-24T12:18:16.171Z,197.29
2023-05-24T12:19:31.686Z,195.20
2023-05-24T12:20:17.051Z,195.27
2023-05-24T12:21:16.005Z,195.13
2023-05-24T12:22:15.939Z,194.72
2023-05-24T12:23:15.869Z,194.66
2023-05-24T12:24:15.831Z,193.31
2023-05-24T12:25:15.773Z,192.64
2023-05-24T12:26:16.058Z,191.22
2023-05-24T12:27:15.748Z,190.04
2023-05-24T12:28:15.648Z,188.17
2023-05-24T12:29:15.628Z,186.47
2023-05-24T12:30:15.574Z,181.59
2023-05-24T12:31:15.536Z,180.50
2023-05-24T12:32:15.914Z,180.53
2023-05-24T12:33:15.453Z,181.71
2023-05-24T12:34:15.365Z,179.49